sensor_id;sensor_type;location;lat;lon;timestamp;P1;durP1;ratioP1;P2;durP2;ratioP2
26634;SDS011;14490;54.208;37.686;2023-03-23T09:04:12;5.93;;;5.43;;
26634;SDS011;14490;54.208;37.686;2023-03-23T09:12:19;5.05;;;4.65;;
26634;SDS011;14490;54.208;37.686;2023-03-23T09:17:34;6.20;;;5.47;;
26634;SDS011;14490;54.208;37.686;2023-03-23T09:20:40;4.57;;;4.07;;
26634;SDS011;14490;54.208;37.686;2023-03-23T09:23:22;5.00;;;4.18;;
26634;SDS011;14490;54.208;37.686;2023-03-23T09:26:30;4.03;;;3.63;;
26634;SDS011;14490;54.208;37.686;2023-03-23T09:29:28;4.63;;;4.20;;
26634;SDS011;14490;54.208;37.686;2023-03-23T09:35:20;4.28;;;3.88;;
26634;SDS011;14490;54.208;37.686;2023-03-23T09:50:03;3.40;;;2.30;;
26634;SDS011;14490;54.208;37.686;2023-03-23T10:00:18;2.45;;;2.25;;
26634;SDS011;14490;54.208;37.686;2023-03-23T10:03:05;3.03;;;1.90;;
26634;SDS011;14490;54.208;37.686;2023-03-23T10:05:53;3.08;;;2.13;;
26634;SDS011;14490;54.208;37.686;2023-03-23T10:08:38;4.05;;;2.53;;
26634;SDS011;14490;54.208;37.686;2023-03-23T10:11:42;2.40;;;2.20;;
26634;SDS011;14490;54.208;37.686;2023-03-23T10:14:41;2.85;;;2.60;;
26634;SDS011;14490;54.208;37.686;2023-03-23T10:44:10;4.00;;;1.73;;
26634;SDS011;14490;54.208;37.686;2023-03-23T10:46:45;1.92;;;1.70;;
26634;SDS011;14490;54.208;37.686;2023-03-23T10:52:27;2.03;;;1.70;;
26634;SDS011;14490;54.208;37.686;2023-03-23T10:55:35;2.72;;;1.55;;
26634;SDS011;14490;54.208;37.686;2023-03-23T10:58:28;3.78;;;1.75;;
26634;SDS011;14490;54.208;37.686;2023-03-23T11:01:29;3.03;;;1.60;;
26634;SDS011;14490;54.208;37.686;2023-03-23T11:04:46;1.98;;;1.77;;
26634;SDS011;14490;54.208;37.686;2023-03-23T11:08:18;2.60;;;1.52;;
26634;SDS011;14490;54.208;37.686;2023-03-23T11:10:58;2.17;;;1.67;;
26634;SDS011;14490;54.208;37.686;2023-03-23T11:13:37;1.30;;;1.20;;
26634;SDS011;14490;54.208;37.686;2023-03-23T11:16:21;1.85;;;1.58;;
26634;SDS011;14490;54.208;37.686;2023-03-23T11:21:49;2.50;;;1.58;;
26634;SDS011;14490;54.208;37.686;2023-03-23T11:27:09;3.00;;;1.70;;
26634;SDS011;14490;54.208;37.686;2023-03-23T11:29:48;1.50;;;1.40;;
26634;SDS011;14490;54.208;37.686;2023-03-23T11:32:42;3.03;;;1.50;;
26634;SDS011;14490;54.208;37.686;2023-03-23T11:35:15;1.50;;;1.40;;
26634;SDS011;14490;54.208;37.686;2023-03-23T11:44:33;2.78;;;1.63;;
26634;SDS011;14490;54.208;37.686;2023-03-23T11:49:49;1.60;;;1.50;;
26634;SDS011;14490;54.208;37.686;2023-03-23T11:57:39;5.43;;;1.80;;
26634;SDS011;14490;54.208;37.686;2023-03-23T12:00:43;2.33;;;2.03;;
26634;SDS011;14490;54.208;37.686;2023-03-23T12:03:47;2.95;;;1.77;;
26634;SDS011;14490;54.208;37.686;2023-03-23T12:07:23;2.30;;;1.73;;
26634;SDS011;14490;54.208;37.686;2023-03-23T12:10:34;3.35;;;1.73;;
26634;SDS011;14490;54.208;37.686;2023-03-23T12:13:53;1.42;;;1.30;;
26634;SDS011;14490;54.208;37.686;2023-03-23T12:16:41;2.80;;;2.00;;
26634;SDS011;14490;54.208;37.686;2023-03-23T12:19:42;2.13;;;1.88;;
26634;SDS011;14490;54.208;37.686;2023-03-23T12:22:39;2.97;;;1.83;;
26634;SDS011;14490;54.208;37.686;2023-03-23T12:25:30;1.77;;;1.67;;
26634;SDS011;14490;54.208;37.686;2023-03-23T12:28:33;2.72;;;1.45;;
26634;SDS011;14490;54.208;37.686;2023-03-23T12:31:28;2.55;;;1.63;;
26634;SDS011;14490;54.208;37.686;2023-03-23T12:47:44;1.47;;;1.37;;
26634;SDS011;14490;54.208;37.686;2023-03-23T12:51:02;1.77;;;1.35;;
26634;SDS011;14490;54.208;37.686;2023-03-23T12:53:50;3.05;;;1.90;;
26634;SDS011;14490;54.208;37.686;2023-03-23T12:56:32;2.08;;;1.88;;
26634;SDS011;14490;54.208;37.686;2023-03-23T16:27:35;2.13;;;1.90;;
26634;SDS011;14490;54.208;37.686;2023-03-23T16:41:08;4.30;;;2.15;;
